Relevés horaires Florennes (Belgique)


Relevés horaires à Florennes - Dimanche 02 Août 2020
Heure UTC1 Température [°C] Vent [km/h] Hum. [%] Pres.4 [hPa] Visi. [Km] Nébu. [octa] Préc.5 [mm] Cond.
2m. Res. Ros. Dir.2 Vit. Moy. Raf.3
23:00 15.1 15.1 10.5 NNO 1.9 -- 5.6 74 1016.2(0.0/3h) 20 -- -- --
22:00 15.0 15.0 10.2 N 3.7 -- 9.3 73 1016.2(0.4/3h) 20 -- -- --
21:00 16.1 16.1 11.0 N 5.6 -- 9.3 72 1016.2(0.8/3h) 20 -- -- --
20:00 17.7 17.7 11.6 NNO 3.7 -- 7.4 67 1015.7(0.6/3h) 20 -- -- --
19:00 19.1 19.1 10.2 N 3.7 -- 9.3 56 1015.3(0.2/3h) 20 -- -- --
18:00 20.3 20.3 9.9 NO 7.4 -- 14.8 51 1014.8(-0.1/3h) 20 -- -- --
17:00 21.3 21.3 9.0 ONO 7.4 -- 13.0 45 1014.7(-0.4/3h) 20 -- -- --
16:00 21.0 21.0 8.8 ONO 7.4 -- 14.8 46 1014.8(-0.7/3h) 20 -- -- --
15:00 22.3 22.3 9.5 O 7.4 -- 13.0 44 1014.8(-0.9/3h) 20 -- -- --
14:00 21.7 21.7 9.8 O 7.4 -- 13.0 47 1015.1(-1.1/3h) 20 -- -- --
13:00 21.9 21.9 10.6 O 5.6 -- 11.1 49 1015.6(-0.8/3h) 20 -- -- --
12:00 20.9 20.9 12.4 O 7.4 -- 16.7 58 1016(-0.3/3h) 20 -- -- --
11:00 19.2 19.2 12.9 O 7.4 -- 14.8 67 1016.6(0.2/3h) 18 -- -- --
10:00 17.4 17.4 13.6 O 9.3 -- 14.8 78 1016.8(0.5/3h) 20 -- -- --
09:00 16.5 16.5 13.5 O 7.4 -- 16.7 82 1016.8(0.8/3h) 16 -- -- --
08:00 15.7 15.7 13.6 O 7.4 -- 13.0 87 1016.7(0.7/3h) 18 -- -- --
07:00 14.7 14.3 12.4 O 9.3 -- 16.7 86 1016.6(0.2/3h) 19 -- -- --
06:00 14.6 14 12.8 O 11.1 -- 14.8 89 1016.2(-0.4/3h) 20 -- -- --
05:00 14.1 14.1 12.1 OSO 3.7 -- 5.6 88 1016.2(-0.5/3h) 20 -- -- --
04:00 14.2 14.2 12.1 OSO 3.7 -- 5.6 87 1016.3(-0.3/3h) 20 -- -- --
03:00 14.9 14.9 12.0 OSO 3.7 -- 7.4 83 1016.6(-0.1/3h) 20 -- -- --
02:00 15.5 15.5 11.9 OSO 3.7 -- 5.6 79 1016.5(-0.4/3h) 20 -- -- --
01:00 16.2 16.2 11.8 NNO 1.9 -- 7.4 75 1016.5(-0.2/3h) 20 -- -- --
00:00 17.8 17.8 11.8 ONO 3.7 -- 14.8 68 1016.3(0.0/3h) 20 -- -- --

1 Coordinated Universal Time. Actuellement il est 21:00 locale et 19:00 UTC.

2 Le vent souffle depuis la direction indiquée vers la direction oposée.

3 Les rafales max. sont disponible 40 min après l'heure du relevé.

4 Pour les stations d'altitude (plus de 600m) le géopotentiel du niveau le plus proche de la pression obligatoire est indiqué.

5 Les stations disposant d'un diffuseur peuvent indiquer "trace". Cela signifie que des précipitations ont touchés le sol mais que la quantité est inférieure à 0.1 mm.

Récapitulatif de la journée
Température [°C] Vent [km/h] Ensoleillement4 [h] Precipitations totale5 [mm] Pression [Hpa]
Min1 Max.2 Moy.3 Max. Min Max.
13.8 23.2 0 16.7 0 h 0 min 0 1014.7 1016.8

1 Température minimale relevée entre 18:00 UTC la veille et 18:00 UTC le jour donné.

2 Température maximale relevée entre 06:00 UTC le jour donné et 06:00 UTC le lendemain.

3 Vent moyen de la journée basé sur les relevés horaires.

4 Ensoleillement en heures relevé entre 06:00 UTC la veille et 06:00 UTC le jour donné.

5 Précipitations totales tombées entre 06:00 UTC la jour donné et 06:00 UTC le lendemain.

Graphiques horaires